Nissho Maru No.18 — JL6369 — position and weather

sailwx.info

Track history (hours):
 
Tides and Currents Weather Stations Pressure Air Temp Water Temp Dewpoint Dewpoint Depression Visibility Wind Speed Wind Dir Waves Ship Positions

Nissho Maru No.18

Last reported at 2017-Apr-29 15:22 UTC. Time now 2017-Apr-30 05:18 UTC.
Position N 34°04' E 135°03'.

Length 65 m; draft 4 m.

Type: Tanker. MMSI: 431500465.

Date/timePositionNaut miles runAvg speedWind from/ knotsBaromVisibWave heightAir tempDewpointWater temp
2017-Apr-29 15:22N 34°04' E 135°03'410.5
2017-Apr-29 14:59N 34°08' E 135°03'1010.2
2017-Apr-29 13:58N 34°18' E 135°04'510.2
2017-Apr-29 13:29N 34°22' E 135°07'510.0
2017-Apr-29 13:00N 34°26' E 135°11'510.8
2017-Apr-29 12:30N 34°30' E 135°16'511.0
2017-Apr-29 12:00N 34°33' E 135°21'3 0.6
2017-Apr-29 06:40N 34°32' E 135°25'0 0.0
2017-Apr-29 06:23N 34°32' E 135°25'0 0.1
2017-Apr-29 05:52N 34°32' E 135°25'2 4.5
2017-Apr-29 05:30N 34°33' E 135°23'611.3
2017-Apr-29 05:00N 34°33' E 135°16'611.4
2017-Apr-29 04:30N 34°34' E 135°10'612.4
2017-Apr-29 04:00N 34°36' E 135°02'611.8
2017-Apr-29 03:28N 34°36' E 134°55'8 0.4
2017-Apr-28 08:14N 34°40' E 134°46'4 9.8
2017-Apr-28 07:52N 34°39' E 134°50'4 8.8
2017-Apr-28 07:24N 34°37' E 134°55'5 8.9
2017-Apr-28 06:51N 34°37' E 135°01'2 5.4
2017-Apr-28 06:31N 34°36' E 135°03'4 7.4
2017-Apr-28 06:01N 34°36' E 135°07'510.6
2017-Apr-28 05:30N 34°35' E 135°14'510.6
2017-Apr-28 05:00N 34°34' E 135°20'5 1.7
2017-Apr-28 02:00N 34°33' E 135°26'0 0.0
2017-Apr-28 00:14N 34°33' E 135°26'0 0.0
2017-Apr-27 23:55N 34°33' E 135°26'1 2.4
2017-Apr-27 23:29N 34°33' E 135°25'4 9.2
2017-Apr-27 23:00N 34°33' E 135°20'1 1.3
2017-Apr-27 22:26N 34°33' E 135°19'0 0.0
2017-Apr-27 21:50N 34°33' E 135°19'0 0.0
2017-Apr-27 21:25N 34°33' E 135°19'0 0.1
2017-Apr-27 20:43N 34°33' E 135°19'0 0.0
2017-Apr-27 20:27N 34°33' E 135°19'0 0.0
2017-Apr-27 19:57N 34°33' E 135°19'0 0.0
2017-Apr-27 19:27N 34°33' E 135°19'0 0.0
2017-Apr-27 18:57N 34°33' E 135°19'0 0.0
2017-Apr-27 18:21N 34°33' E 135°19'0 0.0
2017-Apr-27 17:57N 34°33' E 135°19'0 0.0
2017-Apr-27 17:27N 34°33' E 135°19'0 0.0
2017-Apr-27 16:57N 34°33' E 135°19'0 0.0
2017-Apr-27 16:27N 34°33' E 135°19'0 0.1
2017-Apr-27 15:51N 34°33' E 135°19'0 0.1
2017-Apr-27 15:27N 34°33' E 135°19'0 0.0
2017-Apr-27 14:39N 34°33' E 135°19'0 0.0
2017-Apr-27 13:57N 34°33' E 135°19'0 0.0
2017-Apr-27 12:33N 34°33' E 135°19'0 0.0
2017-Apr-27 12:27N 34°33' E 135°19'0 0.0
2017-Apr-27 11:57N 34°33' E 135°19'0 0.6
2017-Apr-27 11:30N 34°33' E 135°19'510.3
2017-Apr-27 11:00N 34°34' E 135°13'612.1
2017-Apr-27 10:30N 34°35' E 135°06'4 8.6
2017-Apr-27 10:00N 34°37' E 135°01'13 0.3
2017-Apr-25 11:07N 34°41' E 134°46'211.5
2017-Apr-25 10:58N 34°40' E 134°47'612.3
2017-Apr-25 10:29N 34°37' E 134°54'613.4
2017-Apr-25 10:01N 34°37' E 135°01'611.9
2017-Apr-25 09:30N 34°36' E 135°09'510.0
2017-Apr-25 09:00N 34°35' E 135°14'5 9.7
2017-Apr-25 08:30N 34°34' E 135°20'5 9.5
2017-Apr-25 08:00N 34°33' E 135°26'0 0.5
2017-Apr-25 07:30N 34°33' E 135°26'0 0.0
2017-Apr-25 06:56N 34°33' E 135°26'0 0.0
2017-Apr-25 06:30N 34°33' E 135°26'0 0.0
2017-Apr-25 06:00N 34°33' E 135°26'0 0.0
2017-Apr-25 05:27N 34°33' E 135°26'0 0.0
2017-Apr-25 04:57N 34°33' E 135°26'0 0.0
2017-Apr-25 03:31N 34°33' E 135°26'0 1.4
2017-Apr-25 03:19N 34°33' E 135°26'1 3.5
2017-Apr-25 02:59N 34°32' E 135°25'0 0.0
2017-Apr-25 02:25N 34°32' E 135°25'0 0.0
2017-Apr-25 02:00N 34°32' E 135°25'0 0.0
2017-Apr-25 01:29N 34°32' E 135°25'0 0.0
2017-Apr-25 01:00N 34°32' E 135°25'0 0.0
2017-Apr-25 00:30N 34°32' E 135°25'0 0.0
2017-Apr-25 00:00N 34°32' E 135°25'0 0.0
2017-Apr-24 23:30N 34°32' E 135°25'0 0.0
2017-Apr-24 23:00N 34°32' E 135°25'1 2.2
2017-Apr-24 22:30N 34°33' E 135°25'4 8.9
2017-Apr-24 22:00N 34°32' E 135°20'0 0.2
2017-Apr-24 21:30N 34°32' E 135°19'0 0.0
2017-Apr-24 20:36N 34°32' E 135°19'0 0.0
2017-Apr-24 20:18N 34°32' E 135°19'0 0.2
2017-Apr-24 20:00N 34°32' E 135°19'0 0.1
2017-Apr-24 19:24N 34°32' E 135°19'0 0.0
2017-Apr-24 18:54N 34°32' E 135°19'0 0.0
2017-Apr-24 18:24N 34°32' E 135°19'0 0.0
2017-Apr-24 18:00N 34°32' E 135°19'0 0.0
2017-Apr-24 17:24N 34°32' E 135°19'0 0.0
2017-Apr-24 17:00N 34°32' E 135°19'0 0.0
2017-Apr-24 16:06N 34°32' E 135°19'0 0.0
2017-Apr-24 16:00N 34°32' E 135°19'0 0.0
2017-Apr-24 15:30N 34°32' E 135°19'1 1.7
2017-Apr-24 15:00N 34°31' E 135°19'510.2
2017-Apr-24 14:29N 34°28' E 135°14'1010.3
2017-Apr-24 13:29N 34°20' E 135°06'5 9.0
2017-Apr-24 12:56N 34°16' E 135°03'510.7
2017-Apr-24 12:30N 34°11' E 135°03'510.8
2017-Apr-24 12:00N 34°05' E 135°03'207 9.0
2017-Apr-23 13:03N 34°49' E 139°08'110.6
2017-Apr-23 12:58N 34°49' E 139°09'1710.0
2017-Apr-23 11:17N 34°60' E 139°25'410.0
2017-Apr-23 10:52N 35°02' E 139°29'410.1
2017-Apr-23 10:30N 35°03' E 139°33'510.7
2017-Apr-23 10:00N 35°06' E 139°39'510.3
2017-Apr-23 09:30N 35°09' E 139°44'611.3
2017-Apr-23 09:00N 35°15' E 139°46'611.4
2017-Apr-23 08:30N 35°19' E 139°43'510.1
2017-Apr-23 08:00N 35°24' E 139°43'510.8
2017-Apr-23 07:30N 35°28' E 139°48'611.1
2017-Apr-23 06:57N 35°31' E 139°55'5 1.1
2017-Apr-23 02:45N 35°31' E 140°01'311.2
2017-Apr-23 02:30N 35°32' E 139°57'611.2
2017-Apr-23 02:00N 35°31' E 139°50'5 9.1
2017-Apr-23 01:31N 35°31' E 139°45'0 0.4
2017-Apr-23 01:00N 35°31' E 139°45'0 0.0
2017-Apr-23 00:30N 35°31' E 139°45'0 0.0
2017-Apr-23 00:00N 35°31' E 139°45'0 0.0
2017-Apr-22 23:30N 35°31' E 139°45'0 0.0
2017-Apr-22 23:00N 35°31' E 139°45'0 0.2
2017-Apr-22 22:30N 35°31' E 139°45'3 6.4
2017-Apr-22 22:00N 35°29' E 139°48'1 1.0
2017-Apr-22 21:29N 35°29' E 139°48'0 0.0
2017-Apr-22 20:56N 35°29' E 139°48'0 0.0
2017-Apr-22 20:29N 35°29' E 139°48'0 0.0
2017-Apr-22 19:59N 35°29' E 139°48'0 0.0
2017-Apr-22 19:29N 35°29' E 139°48'0 0.0
2017-Apr-22 18:59N 35°29' E 139°48'0 0.0
2017-Apr-22 18:29N 35°29' E 139°48'0 0.0
2017-Apr-22 17:59N 35°29' E 139°48'0 0.0
2017-Apr-22 17:29N 35°29' E 139°48'0 0.0
2017-Apr-22 16:59N 35°29' E 139°48'0 0.0
2017-Apr-22 15:41N 35°29' E 139°48'0 0.0
2017-Apr-22 15:05N 35°29' E 139°48'0 0.0
2017-Apr-22 14:50N 35°29' E 139°48'0 0.0
2017-Apr-22 13:17N 35°29' E 139°48'0 0.0
2017-Apr-22 12:56N 35°29' E 139°48'0 0.0
2017-Apr-22 12:29N 35°29' E 139°48'0 0.1
2017-Apr-22 11:59N 35°29' E 139°48'0 0.0
2017-Apr-22 11:29N 35°29' E 139°48'0 0.0
2017-Apr-22 10:59N 35°29' E 139°48'0 0.0
2017-Apr-22 10:29N 35°29' E 139°48'0 0.2
2017-Apr-22 10:00N 35°29' E 139°49'4 8.4
2017-Apr-22 09:30N 35°27' E 139°44'5 9.0
2017-Apr-22 09:00N 35°24' E 139°40'2 3.3
2017-Apr-22 08:30N 35°25' E 139°39'0 0.0
2017-Apr-22 08:00N 35°25' E 139°39'0 0.0
2017-Apr-22 07:30N 35°25' E 139°39'0 0.0
2017-Apr-22 07:00N 35°25' E 139°39'0 0.0
2017-Apr-22 06:30N 35°25' E 139°39'0 0.0
2017-Apr-22 06:00N 35°25' E 139°39'0 0.0
2017-Apr-22 05:30N 35°25' E 139°39'0 0.0
2017-Apr-22 05:00N 35°25' E 139°39'0 0.0
2017-Apr-22 04:30N 35°25' E 139°39'0 0.0
2017-Apr-22 04:00N 35°25' E 139°39'2 4.4
2017-Apr-22 03:30N 35°23' E 139°40'0 0.1
2017-Apr-22 02:59N 35°23' E 139°40'0 0.7
2017-Apr-22 02:31N 35°23' E 139°41'510.3
2017-Apr-22 02:00N 35°28' E 139°42'4 8.2
2017-Apr-22 01:30N 35°31' E 139°45'0 0.2
2017-Apr-22 01:00N 35°31' E 139°45'0 0.0
2017-Apr-22 00:30N 35°31' E 139°45'0 0.0
2017-Apr-22 00:00N 35°31' E 139°45'0 0.0
2017-Apr-21 23:30N 35°31' E 139°45'0 0.0
2017-Apr-21 23:00N 35°31' E 139°45'0 0.3
2017-Apr-21 22:30N 35°31' E 139°45'3 6.6
2017-Apr-21 22:00N 35°29' E 139°48'0 0.9
2017-Apr-21 21:29N 35°29' E 139°49'0 0.0
2017-Apr-21 20:53N 35°29' E 139°49'0 0.0
2017-Apr-21 20:26N 35°29' E 139°49'0 0.0
2017-Apr-21 19:56N 35°29' E 139°49'0 0.0
2017-Apr-21 19:23N 35°29' E 139°49'0 0.0
2017-Apr-21 18:59N 35°29' E 139°49'0 0.0
2017-Apr-21 18:29N 35°29' E 139°49'0 0.0
2017-Apr-21 17:59N 35°29' E 139°49'0 0.0
2017-Apr-21 17:11N 35°29' E 139°49'0 0.0
2017-Apr-21 16:59N 35°29' E 139°49'0 0.0
2017-Apr-21 16:29N 35°29' E 139°49'0 0.1
2017-Apr-21 16:00N 35°29' E 139°49'0 0.0
2017-Apr-21 15:30N 35°29' E 139°49'0 0.0
2017-Apr-21 15:00N 35°29' E 139°49'0 0.0
2017-Apr-21 14:30N 35°29' E 139°49'0 0.0
2017-Apr-21 13:27N 35°29' E 139°49'0 0.0
2017-Apr-21 13:00N 35°29' E 139°49'0 0.0
2017-Apr-21 12:30N 35°29' E 139°49'0 0.0
2017-Apr-21 12:00N 35°29' E 139°49'0 0.0
2017-Apr-21 11:30N 35°29' E 139°49'0 0.0
2017-Apr-21 11:00N 35°29' E 139°49'0 0.0
2017-Apr-21 10:30N 35°29' E 139°49'0 0.1
2017-Apr-21 10:00N 35°29' E 139°49'0 0.0
2017-Apr-21 09:30N 35°29' E 139°49'0 0.0
2017-Apr-21 09:00N 35°29' E 139°49'0 0.0
2017-Apr-21 08:30N 35°29' E 139°49'0 0.1
2017-Apr-21 07:57N 35°29' E 139°49'0 0.1
2017-Apr-21 07:30N 35°29' E 139°49'5 9.0
2017-Apr-21 07:00N 35°26' E 139°45'4 8.9
2017-Apr-21 06:30N 35°24' E 139°40'1 2.2
2017-Apr-21 06:00N 35°25' E 139°39'0 0.0
2017-Apr-21 05:30N 35°25' E 139°39'0 0.0
2017-Apr-21 05:00N 35°25' E 139°39'0 0.0
2017-Apr-21 04:30N 35°25' E 139°39'0 0.0
2017-Apr-21 04:00N 35°25' E 139°39'0 0.0
2017-Apr-21 03:30N 35°25' E 139°39'0 0.0
2017-Apr-21 03:00N 35°25' E 139°39'0 0.0
2017-Apr-21 02:30N 35°25' E 139°39'0 0.1
2017-Apr-21 02:00N 35°25' E 139°39'2 4.0
2017-Apr-21 01:27N 35°23' E 139°40'0 0.0
2017-Apr-21 01:00N 35°23' E 139°40'0 0.0
2017-Apr-21 00:27N 35°23' E 139°40'0 0.0
2017-Apr-21 00:00N 35°23' E 139°40'0 0.1
2017-Apr-20 23:27N 35°23' E 139°40'0 0.0
2017-Apr-20 23:00N 35°23' E 139°40'0 0.0
2017-Apr-20 22:30N 35°23' E 139°40'0 0.0
2017-Apr-20 21:57N 35°23' E 139°40'0 0.1
2017-Apr-20 21:30N 35°23' E 139°40'0 0.0
2017-Apr-20 21:00N 35°23' E 139°40'0 0.0
2017-Apr-20 20:30N 35°23' E 139°40'0 0.0
2017-Apr-20 20:00N 35°23' E 139°40'0 0.0
2017-Apr-20 19:30N 35°23' E 139°40'0 0.0
2017-Apr-20 19:00N 35°23' E 139°40'0 0.0
2017-Apr-20 18:30N 35°23' E 139°40'0 0.0
2017-Apr-20 18:00N 35°23' E 139°40'0 0.0
2017-Apr-20 17:30N 35°23' E 139°40'0 0.0
2017-Apr-20 16:57N 35°23' E 139°40'0 0.0
2017-Apr-20 16:30N 35°23' E 139°40'0 0.0
2017-Apr-20 16:00N 35°23' E 139°40'0 0.0
2017-Apr-20 15:30N 35°23' E 139°40'0 0.0
2017-Apr-20 15:00N 35°23' E 139°40'0 0.0
2017-Apr-20 14:00N 35°23' E 139°40'0 0.0
2017-Apr-20 13:30N 35°23' E 139°40'0 0.0
2017-Apr-20 13:00N 35°23' E 139°40'0 0.0
2017-Apr-20 12:30N 35°23' E 139°40'0 0.0
2017-Apr-20 12:00N 35°23' E 139°40'0 0.0
2017-Apr-20 11:30N 35°23' E 139°40'0 0.0
2017-Apr-20 11:00N 35°23' E 139°40'0 0.0
2017-Apr-20 10:30N 35°23' E 139°40'0 0.0
2017-Apr-20 10:00N 35°23' E 139°40'0 0.0
2017-Apr-20 09:30N 35°23' E 139°40'0 0.0
2017-Apr-20 09:00N 35°23' E 139°40'0 0.0
2017-Apr-20 08:30N 35°23' E 139°40'4 7.5
2017-Apr-20 08:00N 35°26' E 139°42'4 8.5
2017-Apr-20 07:30N 35°30' E 139°44'2 3.2
2017-Apr-20 07:00N 35°31' E 139°45'0 0.0
2017-Apr-20 06:30N 35°31' E 139°45'0 0.0
2017-Apr-20 06:00N 35°31' E 139°45'0 0.0
2017-Apr-20 05:30N 35°31' E 139°45'0 0.0
2017-Apr-20 05:00N 35°31' E 139°45'0 0.0
2017-Apr-20 04:30N 35°31' E 139°45'2 4.7
2017-Apr-20 04:00N 35°29' E 139°43'5 9.2
2017-Apr-20 03:30N 35°25' E 139°42'3 5.6
2017-Apr-20 03:00N 35°25' E 139°39'0 0.0
2017-Apr-20 02:30N 35°25' E 139°39'0 0.0
2017-Apr-20 02:00N 35°25' E 139°39'0 0.0
2017-Apr-20 01:30N 35°25' E 139°39'0 0.0
2017-Apr-20 01:00N 35°25' E 139°39'0 0.0
2017-Apr-20 00:30N 35°25' E 139°39'0 0.0
2017-Apr-20 00:00N 35°25' E 139°39'0 0.0
2017-Apr-19 23:30N 35°25' E 139°39'0 0.7
2017-Apr-19 23:00N 35°24' E 139°39'2 3.8
2017-Apr-19 22:31N 35°23' E 139°40'0 0.0
2017-Apr-19 22:00N 35°23' E 139°40'0 0.0
2017-Apr-19 21:30N 35°23' E 139°40'0 0.1
2017-Apr-19 21:00N 35°23' E 139°40'0 0.0
2017-Apr-19 20:28N 35°23' E 139°40'0 0.0
2017-Apr-19 20:00N 35°23' E 139°40'0 0.0
2017-Apr-19 19:30N 35°23' E 139°40'0 0.0
2017-Apr-19 19:00N 35°23' E 139°40'0 0.0
2017-Apr-19 18:31N 35°23' E 139°40'0 0.0
2017-Apr-19 18:00N 35°23' E 139°40'0 0.0
2017-Apr-19 17:30N 35°23' E 139°40'0 0.0
2017-Apr-19 17:00N 35°23' E 139°40'0 0.0
2017-Apr-19 16:30N 35°23' E 139°40'0 0.0
2017-Apr-19 16:00N 35°23' E 139°40'0 0.0
2017-Apr-19 15:30N 35°23' E 139°40'  
Track history (hours):
 
Tides and Currents Weather Stations Pressure Air Temp Water Temp Dewpoint Dewpoint Depression Visibility Wind Speed Wind Dir Waves Ship Positions

Nissho Maru No.18

Last reported at 2017-Apr-29 15:22 UTC. Time now 2017-Apr-30 05:18 UTC.
Position N 34°04' E 135°03'.

Length 65 m; draft 4 m.

Type: Tanker. MMSI: 431500465.

Date/timePositionNaut miles runAvg speedWind from/ knotsBaromVisibWave heightAir tempDewpointWater temp
2017-Apr-29 15:22N 34°04' E 135°03'410.5
2017-Apr-29 14:59N 34°08' E 135°03'1010.2
2017-Apr-29 13:58N 34°18' E 135°04'510.2
2017-Apr-29 13:29N 34°22' E 135°07'510.0
2017-Apr-29 13:00N 34°26' E 135°11'510.8
2017-Apr-29 12:30N 34°30' E 135°16'511.0
2017-Apr-29 12:00N 34°33' E 135°21'3 0.6
2017-Apr-29 06:40N 34°32' E 135°25'0 0.0
2017-Apr-29 06:23N 34°32' E 135°25'0 0.1
2017-Apr-29 05:52N 34°32' E 135°25'2 4.5
2017-Apr-29 05:30N 34°33' E 135°23'611.3
2017-Apr-29 05:00N 34°33' E 135°16'611.4
2017-Apr-29 04:30N 34°34' E 135°10'612.4
2017-Apr-29 04:00N 34°36' E 135°02'611.8
2017-Apr-29 03:28N 34°36' E 134°55'8 0.4
2017-Apr-28 08:14N 34°40' E 134°46'4 9.8
2017-Apr-28 07:52N 34°39' E 134°50'4 8.8
2017-Apr-28 07:24N 34°37' E 134°55'5 8.9
2017-Apr-28 06:51N 34°37' E 135°01'2 5.4
2017-Apr-28 06:31N 34°36' E 135°03'4 7.4
2017-Apr-28 06:01N 34°36' E 135°07'510.6
2017-Apr-28 05:30N 34°35' E 135°14'510.6
2017-Apr-28 05:00N 34°34' E 135°20'5 1.7
2017-Apr-28 02:00N 34°33' E 135°26'0 0.0
2017-Apr-28 00:14N 34°33' E 135°26'0 0.0
2017-Apr-27 23:55N 34°33' E 135°26'1 2.4
2017-Apr-27 23:29N 34°33' E 135°25'4 9.2
2017-Apr-27 23:00N 34°33' E 135°20'1 1.3
2017-Apr-27 22:26N 34°33' E 135°19'0 0.0
2017-Apr-27 21:50N 34°33' E 135°19'0 0.0
2017-Apr-27 21:25N 34°33' E 135°19'0 0.1
2017-Apr-27 20:43N 34°33' E 135°19'0 0.0
2017-Apr-27 20:27N 34°33' E 135°19'0 0.0
2017-Apr-27 19:57N 34°33' E 135°19'0 0.0
2017-Apr-27 19:27N 34°33' E 135°19'0 0.0
2017-Apr-27 18:57N 34°33' E 135°19'0 0.0
2017-Apr-27 18:21N 34°33' E 135°19'0 0.0
2017-Apr-27 17:57N 34°33' E 135°19'0 0.0
2017-Apr-27 17:27N 34°33' E 135°19'0 0.0
2017-Apr-27 16:57N 34°33' E 135°19'0 0.0
2017-Apr-27 16:27N 34°33' E 135°19'0 0.1
2017-Apr-27 15:51N 34°33' E 135°19'0 0.1
2017-Apr-27 15:27N 34°33' E 135°19'0 0.0
2017-Apr-27 14:39N 34°33' E 135°19'0 0.0
2017-Apr-27 13:57N 34°33' E 135°19'0 0.0
2017-Apr-27 12:33N 34°33' E 135°19'0 0.0
2017-Apr-27 12:27N 34°33' E 135°19'0 0.0
2017-Apr-27 11:57N 34°33' E 135°19'0 0.6
2017-Apr-27 11:30N 34°33' E 135°19'510.3
2017-Apr-27 11:00N 34°34' E 135°13'612.1
2017-Apr-27 10:30N 34°35' E 135°06'4 8.6
2017-Apr-27 10:00N 34°37' E 135°01'13 0.3
2017-Apr-25 11:07N 34°41' E 134°46'211.5
2017-Apr-25 10:58N 34°40' E 134°47'612.3
2017-Apr-25 10:29N 34°37' E 134°54'613.4
2017-Apr-25 10:01N 34°37' E 135°01'611.9
2017-Apr-25 09:30N 34°36' E 135°09'510.0
2017-Apr-25 09:00N 34°35' E 135°14'5 9.7
2017-Apr-25 08:30N 34°34' E 135°20'5 9.5
2017-Apr-25 08:00N 34°33' E 135°26'0 0.5
2017-Apr-25 07:30N 34°33' E 135°26'0 0.0
2017-Apr-25 06:56N 34°33' E 135°26'0 0.0
2017-Apr-25 06:30N 34°33' E 135°26'0 0.0
2017-Apr-25 06:00N 34°33' E 135°26'0 0.0
2017-Apr-25 05:27N 34°33' E 135°26'0 0.0
2017-Apr-25 04:57N 34°33' E 135°26'0 0.0
2017-Apr-25 03:31N 34°33' E 135°26'0 1.4
2017-Apr-25 03:19N 34°33' E 135°26'1 3.5
2017-Apr-25 02:59N 34°32' E 135°25'0 0.0
2017-Apr-25 02:25N 34°32' E 135°25'0 0.0
2017-Apr-25 02:00N 34°32' E 135°25'0 0.0
2017-Apr-25 01:29N 34°32' E 135°25'0 0.0
2017-Apr-25 01:00N 34°32' E 135°25'0 0.0
2017-Apr-25 00:30N 34°32' E 135°25'0 0.0
2017-Apr-25 00:00N 34°32' E 135°25'0 0.0
2017-Apr-24 23:30N 34°32' E 135°25'0 0.0
2017-Apr-24 23:00N 34°32' E 135°25'1 2.2
2017-Apr-24 22:30N 34°33' E 135°25'4 8.9
2017-Apr-24 22:00N 34°32' E 135°20'0 0.2
2017-Apr-24 21:30N 34°32' E 135°19'0 0.0
2017-Apr-24 20:36N 34°32' E 135°19'0 0.0
2017-Apr-24 20:18N 34°32' E 135°19'0 0.2
2017-Apr-24 20:00N 34°32' E 135°19'0 0.1
2017-Apr-24 19:24N 34°32' E 135°19'0 0.0
2017-Apr-24 18:54N 34°32' E 135°19'0 0.0
2017-Apr-24 18:24N 34°32' E 135°19'0 0.0
2017-Apr-24 18:00N 34°32' E 135°19'0 0.0
2017-Apr-24 17:24N 34°32' E 135°19'0 0.0
2017-Apr-24 17:00N 34°32' E 135°19'0 0.0
2017-Apr-24 16:06N 34°32' E 135°19'0 0.0
2017-Apr-24 16:00N 34°32' E 135°19'0 0.0
2017-Apr-24 15:30N 34°32' E 135°19'1 1.7
2017-Apr-24 15:00N 34°31' E 135°19'510.2
2017-Apr-24 14:29N 34°28' E 135°14'1010.3
2017-Apr-24 13:29N 34°20' E 135°06'5 9.0
2017-Apr-24 12:56N 34°16' E 135°03'510.7
2017-Apr-24 12:30N 34°11' E 135°03'510.8
2017-Apr-24 12:00N 34°05' E 135°03'207 9.0
2017-Apr-23 13:03N 34°49' E 139°08'110.6
2017-Apr-23 12:58N 34°49' E 139°09'1710.0
2017-Apr-23 11:17N 34°60' E 139°25'410.0
2017-Apr-23 10:52N 35°02' E 139°29'410.1
2017-Apr-23 10:30N 35°03' E 139°33'510.7
2017-Apr-23 10:00N 35°06' E 139°39'510.3
2017-Apr-23 09:30N 35°09' E 139°44'611.3
2017-Apr-23 09:00N 35°15' E 139°46'611.4
2017-Apr-23 08:30N 35°19' E 139°43'510.1
2017-Apr-23 08:00N 35°24' E 139°43'510.8
2017-Apr-23 07:30N 35°28' E 139°48'611.1
2017-Apr-23 06:57N 35°31' E 139°55'5 1.1
2017-Apr-23 02:45N 35°31' E 140°01'311.2
2017-Apr-23 02:30N 35°32' E 139°57'611.2
2017-Apr-23 02:00N 35°31' E 139°50'5 9.1
2017-Apr-23 01:31N 35°31' E 139°45'0 0.4
2017-Apr-23 01:00N 35°31' E 139°45'0 0.0
2017-Apr-23 00:30N 35°31' E 139°45'0 0.0
2017-Apr-23 00:00N 35°31' E 139°45'0 0.0
2017-Apr-22 23:30N 35°31' E 139°45'0 0.0
2017-Apr-22 23:00N 35°31' E 139°45'0 0.2
2017-Apr-22 22:30N 35°31' E 139°45'3 6.4
2017-Apr-22 22:00N 35°29' E 139°48'1 1.0
2017-Apr-22 21:29N 35°29' E 139°48'0 0.0
2017-Apr-22 20:56N 35°29' E 139°48'0 0.0
2017-Apr-22 20:29N 35°29' E 139°48'0 0.0
2017-Apr-22 19:59N 35°29' E 139°48'0 0.0
2017-Apr-22 19:29N 35°29' E 139°48'0 0.0
2017-Apr-22 18:59N 35°29' E 139°48'0 0.0
2017-Apr-22 18:29N 35°29' E 139°48'0 0.0
2017-Apr-22 17:59N 35°29' E 139°48'0 0.0
2017-Apr-22 17:29N 35°29' E 139°48'0 0.0
2017-Apr-22 16:59N 35°29' E 139°48'0 0.0
2017-Apr-22 15:41N 35°29' E 139°48'0 0.0
2017-Apr-22 15:05N 35°29' E 139°48'0 0.0
2017-Apr-22 14:50N 35°29' E 139°48'0 0.0
2017-Apr-22 13:17N 35°29' E 139°48'0 0.0
2017-Apr-22 12:56N 35°29' E 139°48'0 0.0
2017-Apr-22 12:29N 35°29' E 139°48'0 0.1
2017-Apr-22 11:59N 35°29' E 139°48'0 0.0
2017-Apr-22 11:29N 35°29' E 139°48'0 0.0
2017-Apr-22 10:59N 35°29' E 139°48'0 0.0
2017-Apr-22 10:29N 35°29' E 139°48'0 0.2
2017-Apr-22 10:00N 35°29' E 139°49'4 8.4
2017-Apr-22 09:30N 35°27' E 139°44'5 9.0
2017-Apr-22 09:00N 35°24' E 139°40'2 3.3
2017-Apr-22 08:30N 35°25' E 139°39'0 0.0
2017-Apr-22 08:00N 35°25' E 139°39'0 0.0
2017-Apr-22 07:30N 35°25' E 139°39'0 0.0
2017-Apr-22 07:00N 35°25' E 139°39'0 0.0
2017-Apr-22 06:30N 35°25' E 139°39'0 0.0
2017-Apr-22 06:00N 35°25' E 139°39'0 0.0
2017-Apr-22 05:30N 35°25' E 139°39'0 0.0
2017-Apr-22 05:00N 35°25' E 139°39'0 0.0
2017-Apr-22 04:30N 35°25' E 139°39'0 0.0
2017-Apr-22 04:00N 35°25' E 139°39'2 4.4
2017-Apr-22 03:30N 35°23' E 139°40'0 0.1
2017-Apr-22 02:59N 35°23' E 139°40'0 0.7
2017-Apr-22 02:31N 35°23' E 139°41'510.3
2017-Apr-22 02:00N 35°28' E 139°42'4 8.2
2017-Apr-22 01:30N 35°31' E 139°45'0 0.2
2017-Apr-22 01:00N 35°31' E 139°45'0 0.0
2017-Apr-22 00:30N 35°31' E 139°45'0 0.0
2017-Apr-22 00:00N 35°31' E 139°45'0 0.0
2017-Apr-21 23:30N 35°31' E 139°45'0 0.0
2017-Apr-21 23:00N 35°31' E 139°45'0 0.3
2017-Apr-21 22:30N 35°31' E 139°45'3 6.6
2017-Apr-21 22:00N 35°29' E 139°48'0 0.9
2017-Apr-21 21:29N 35°29' E 139°49'0 0.0
2017-Apr-21 20:53N 35°29' E 139°49'0 0.0
2017-Apr-21 20:26N 35°29' E 139°49'0 0.0
2017-Apr-21 19:56N 35°29' E 139°49'0 0.0
2017-Apr-21 19:23N 35°29' E 139°49'0 0.0
2017-Apr-21 18:59N 35°29' E 139°49'0 0.0
2017-Apr-21 18:29N 35°29' E 139°49'0 0.0
2017-Apr-21 17:59N 35°29' E 139°49'0 0.0
2017-Apr-21 17:11N 35°29' E 139°49'0 0.0
2017-Apr-21 16:59N 35°29' E 139°49'0 0.0
2017-Apr-21 16:29N 35°29' E 139°49'0 0.1
2017-Apr-21 16:00N 35°29' E 139°49'0 0.0
2017-Apr-21 15:30N 35°29' E 139°49'0 0.0
2017-Apr-21 15:00N 35°29' E 139°49'0 0.0
2017-Apr-21 14:30N 35°29' E 139°49'0 0.0
2017-Apr-21 13:27N 35°29' E 139°49'0 0.0
2017-Apr-21 13:00N 35°29' E 139°49'0 0.0
2017-Apr-21 12:30N 35°29' E 139°49'0 0.0
2017-Apr-21 12:00N 35°29' E 139°49'0 0.0
2017-Apr-21 11:30N 35°29' E 139°49'0 0.0
2017-Apr-21 11:00N 35°29' E 139°49'0 0.0
2017-Apr-21 10:30N 35°29' E 139°49'0 0.1
2017-Apr-21 10:00N 35°29' E 139°49'0 0.0
2017-Apr-21 09:30N 35°29' E 139°49'0 0.0
2017-Apr-21 09:00N 35°29' E 139°49'0 0.0
2017-Apr-21 08:30N 35°29' E 139°49'0 0.1
2017-Apr-21 07:57N 35°29' E 139°49'0 0.1
2017-Apr-21 07:30N 35°29' E 139°49'5 9.0
2017-Apr-21 07:00N 35°26' E 139°45'4 8.9
2017-Apr-21 06:30N 35°24' E 139°40'1 2.2
2017-Apr-21 06:00N 35°25' E 139°39'0 0.0
2017-Apr-21 05:30N 35°25' E 139°39'0 0.0
2017-Apr-21 05:00N 35°25' E 139°39'0 0.0
2017-Apr-21 04:30N 35°25' E 139°39'0 0.0
2017-Apr-21 04:00N 35°25' E 139°39'0 0.0
2017-Apr-21 03:30N 35°25' E 139°39'0 0.0
2017-Apr-21 03:00N 35°25' E 139°39'0 0.0
2017-Apr-21 02:30N 35°25' E 139°39'0 0.1
2017-Apr-21 02:00N 35°25' E 139°39'2 4.0
2017-Apr-21 01:27N 35°23' E 139°40'0 0.0
2017-Apr-21 01:00N 35°23' E 139°40'0 0.0
2017-Apr-21 00:27N 35°23' E 139°40'0 0.0
2017-Apr-21 00:00N 35°23' E 139°40'0 0.1
2017-Apr-20 23:27N 35°23' E 139°40'0 0.0
2017-Apr-20 23:00N 35°23' E 139°40'0 0.0
2017-Apr-20 22:30N 35°23' E 139°40'0 0.0
2017-Apr-20 21:57N 35°23' E 139°40'0 0.1
2017-Apr-20 21:30N 35°23' E 139°40'0 0.0
2017-Apr-20 21:00N 35°23' E 139°40'0 0.0
2017-Apr-20 20:30N 35°23' E 139°40'0 0.0
2017-Apr-20 20:00N 35°23' E 139°40'0 0.0
2017-Apr-20 19:30N 35°23' E 139°40'0 0.0
2017-Apr-20 19:00N 35°23' E 139°40'0 0.0
2017-Apr-20 18:30N 35°23' E 139°40'0 0.0
2017-Apr-20 18:00N 35°23' E 139°40'0 0.0
2017-Apr-20 17:30N 35°23' E 139°40'0 0.0
2017-Apr-20 16:57N 35°23' E 139°40'0 0.0
2017-Apr-20 16:30N 35°23' E 139°40'0 0.0
2017-Apr-20 16:00N 35°23' E 139°40'0 0.0
2017-Apr-20 15:30N 35°23' E 139°40'0 0.0
2017-Apr-20 15:00N 35°23' E 139°40'0 0.0
2017-Apr-20 14:00N 35°23' E 139°40'0 0.0
2017-Apr-20 13:30N 35°23' E 139°40'0 0.0
2017-Apr-20 13:00N 35°23' E 139°40'0 0.0
2017-Apr-20 12:30N 35°23' E 139°40'0 0.0
2017-Apr-20 12:00N 35°23' E 139°40'0 0.0
2017-Apr-20 11:30N 35°23' E 139°40'0 0.0
2017-Apr-20 11:00N 35°23' E 139°40'0 0.0
2017-Apr-20 10:30N 35°23' E 139°40'0 0.0
2017-Apr-20 10:00N 35°23' E 139°40'0 0.0
2017-Apr-20 09:30N 35°23' E 139°40'0 0.0
2017-Apr-20 09:00N 35°23' E 139°40'0 0.0
2017-Apr-20 08:30N 35°23' E 139°40'4 7.5
2017-Apr-20 08:00N 35°26' E 139°42'4 8.5
2017-Apr-20 07:30N 35°30' E 139°44'2 3.2
2017-Apr-20 07:00N 35°31' E 139°45'0 0.0
2017-Apr-20 06:30N 35°31' E 139°45'0 0.0
2017-Apr-20 06:00N 35°31' E 139°45'0 0.0
2017-Apr-20 05:30N 35°31' E 139°45'0 0.0
2017-Apr-20 05:00N 35°31' E 139°45'0 0.0
2017-Apr-20 04:30N 35°31' E 139°45'2 4.7
2017-Apr-20 04:00N 35°29' E 139°43'5 9.2
2017-Apr-20 03:30N 35°25' E 139°42'3 5.6
2017-Apr-20 03:00N 35°25' E 139°39'0 0.0
2017-Apr-20 02:30N 35°25' E 139°39'0 0.0
2017-Apr-20 02:00N 35°25' E 139°39'0 0.0
2017-Apr-20 01:30N 35°25' E 139°39'0 0.0
2017-Apr-20 01:00N 35°25' E 139°39'0 0.0
2017-Apr-20 00:30N 35°25' E 139°39'0 0.0
2017-Apr-20 00:00N 35°25' E 139°39'0 0.0
2017-Apr-19 23:30N 35°25' E 139°39'0 0.7
2017-Apr-19 23:00N 35°24' E 139°39'2 3.8
2017-Apr-19 22:31N 35°23' E 139°40'0 0.0
2017-Apr-19 22:00N 35°23' E 139°40'0 0.0
2017-Apr-19 21:30N 35°23' E 139°40'0 0.1
2017-Apr-19 21:00N 35°23' E 139°40'0 0.0
2017-Apr-19 20:28N 35°23' E 139°40'0 0.0
2017-Apr-19 20:00N 35°23' E 139°40'0 0.0
2017-Apr-19 19:30N 35°23' E 139°40'0 0.0
2017-Apr-19 19:00N 35°23' E 139°40'0 0.0
2017-Apr-19 18:31N 35°23' E 139°40'0 0.0
2017-Apr-19 18:00N 35°23' E 139°40'0 0.0
2017-Apr-19 17:30N 35°23' E 139°40'0 0.0
2017-Apr-19 17:00N 35°23' E 139°40'0 0.0
2017-Apr-19 16:30N 35°23' E 139°40'0 0.0
2017-Apr-19 16:00N 35°23' E 139°40'0 0.0
2017-Apr-19 15:30N 35°23' E 139°40'  

Dump ship's entire track history